sensor_id;sensor_type;location;lat;lon;timestamp;temperature;humidity
3614;DHT22;1821;50.936;6.854;2022-09-21T00:00:05;11.00;99.90
3614;DHT22;1821;50.936;6.854;2022-09-21T00:00:47;11.00;99.90
3614;DHT22;1821;50.936;6.854;2022-09-21T00:01:30;10.90;99.90
3614;DHT22;1821;50.936;6.854;2022-09-21T00:02:12;11.40;99.90
3614;DHT22;1821;50.936;6.854;2022-09-21T00:02:55;11.10;99.90
3614;DHT22;1821;50.936;6.854;2022-09-21T00:03:38;11.00;99.90
3614;DHT22;1821;50.936;6.854;2022-09-21T00:04:21;10.80;99.90
3614;DHT22;1821;50.936;6.854;2022-09-21T00:05:03;11.50;99.90
3614;DHT22;1821;50.936;6.854;2022-09-21T00:05:46;11.00;99.90
3614;DHT22;1821;50.936;6.854;2022-09-21T00:06:31;11.50;99.90
3614;DHT22;1821;50.936;6.854;2022-09-21T00:07:13;11.00;99.90
3614;DHT22;1821;50.936;6.854;2022-09-21T00:07:54;11.00;99.90
3614;DHT22;1821;50.936;6.854;2022-09-21T00:08:36;11.20;99.90
3614;DHT22;1821;50.936;6.854;2022-09-21T00:09:18;12.00;99.90
3614;DHT22;1821;50.936;6.854;2022-09-21T00:09:59;11.00;99.90
3614;DHT22;1821;50.936;6.854;2022-09-21T00:10:41;11.00;99.90
3614;DHT22;1821;50.936;6.854;2022-09-21T00:11:26;11.20;99.90
3614;DHT22;1821;50.936;6.854;2022-09-21T00:12:08;11.00;99.90
3614;DHT22;1821;50.936;6.854;2022-09-21T00:12:50;10.90;99.90
3614;DHT22;1821;50.936;6.854;2022-09-21T00:13:32;10.90;99.90
3614;DHT22;1821;50.936;6.854;2022-09-21T00:14:15;10.90;99.90
3614;DHT22;1821;50.936;6.854;2022-09-21T00:14:56;11.10;99.90
3614;DHT22;1821;50.936;6.854;2022-09-21T00:15:39;10.80;99.90
3614;DHT22;1821;50.936;6.854;2022-09-21T00:16:21;11.00;99.90
3614;DHT22;1821;50.936;6.854;2022-09-21T00:17:03;11.30;99.90
3614;DHT22;1821;50.936;6.854;2022-09-21T00:17:46;10.70;99.90
3614;DHT22;1821;50.936;6.854;2022-09-21T00:18:30;11.00;99.90
3614;DHT22;1821;50.936;6.854;2022-09-21T00:19:12;10.60;99.90
3614;DHT22;1821;50.936;6.854;2022-09-21T00:19:54;10.40;99.90
3614;DHT22;1821;50.936;6.854;2022-09-21T00:20:36;11.80;99.90
3614;DHT22;1821;50.936;6.854;2022-09-21T00:21:21;10.80;99.90
3614;DHT22;1821;50.936;6.854;2022-09-21T00:22:02;10.90;99.90
3614;DHT22;1821;50.936;6.854;2022-09-21T00:22:45;10.80;99.90
3614;DHT22;1821;50.936;6.854;2022-09-21T00:23:27;11.40;99.90
3614;DHT22;1821;50.936;6.854;2022-09-21T00:24:09;10.70;99.90
3614;DHT22;1821;50.936;6.854;2022-09-21T00:24:52;10.80;99.90
3614;DHT22;1821;50.936;6.854;2022-09-21T00:25:34;10.50;99.90
3614;DHT22;1821;50.936;6.854;2022-09-21T00:26:18;10.80;99.90
3614;DHT22;1821;50.936;6.854;2022-09-21T00:27:00;11.30;99.90
3614;DHT22;1821;50.936;6.854;2022-09-21T00:27:42;10.80;99.90
3614;DHT22;1821;50.936;6.854;2022-09-21T00:28:24;11.40;99.90
3614;DHT22;1821;50.936;6.854;2022-09-21T00:29:05;11.30;99.90
3614;DHT22;1821;50.936;6.854;2022-09-21T00:29:47;11.10;99.90
3614;DHT22;1821;50.936;6.854;2022-09-21T00:30:29;11.50;99.90
3614;DHT22;1821;50.936;6.854;2022-09-21T00:31:13;10.70;99.90
3614;DHT22;1821;50.936;6.854;2022-09-21T00:31:55;10.70;99.90
3614;DHT22;1821;50.936;6.854;2022-09-21T00:32:37;11.50;99.90
3614;DHT22;1821;50.936;6.854;2022-09-21T00:33:19;10.50;99.90
3614;DHT22;1821;50.936;6.854;2022-09-21T00:34:01;11.20;99.90
3614;DHT22;1821;50.936;6.854;2022-09-21T00:34:44;10.80;99.90
3614;DHT22;1821;50.936;6.854;2022-09-21T00:35:25;11.10;99.90
3614;DHT22;1821;50.936;6.854;2022-09-21T00:36:10;11.00;99.90
3614;DHT22;1821;50.936;6.854;2022-09-21T00:36:52;10.70;99.90
3614;DHT22;1821;50.936;6.854;2022-09-21T00:37:34;11.00;99.90
3614;DHT22;1821;50.936;6.854;2022-09-21T00:38:16;10.60;99.90
3614;DHT22;1821;50.936;6.854;2022-09-21T00:38:59;11.00;99.90
3614;DHT22;1821;50.936;6.854;2022-09-21T00:39:42;10.60;99.90
3614;DHT22;1821;50.936;6.854;2022-09-21T00:40:23;10.60;99.90
3614;DHT22;1821;50.936;6.854;2022-09-21T00:41:07;11.10;99.90
3614;DHT22;1821;50.936;6.854;2022-09-21T00:41:49;10.20;99.90
3614;DHT22;1821;50.936;6.854;2022-09-21T00:42:34;10.50;99.90
3614;DHT22;1821;50.936;6.854;2022-09-21T00:43:16;10.50;99.90
3614;DHT22;1821;50.936;6.854;2022-09-21T00:44:24;11.60;99.90
3614;DHT22;1821;50.936;6.854;2022-09-21T00:45:09;10.50;99.90
3614;DHT22;1821;50.936;6.854;2022-09-21T00:46:07;10.50;99.90
3614;DHT22;1821;50.936;6.854;2022-09-21T00:46:57;10.20;99.90
3614;DHT22;1821;50.936;6.854;2022-09-21T00:47:43;11.20;99.90
3614;DHT22;1821;50.936;6.854;2022-09-21T00:48:26;10.50;99.90
3614;DHT22;1821;50.936;6.854;2022-09-21T00:49:08;11.20;99.90
3614;DHT22;1821;50.936;6.854;2022-09-21T00:49:52;10.40;99.90
3614;DHT22;1821;50.936;6.854;2022-09-21T00:50:42;10.70;99.90
3614;DHT22;1821;50.936;6.854;2022-09-21T00:51:24;10.50;99.90
3614;DHT22;1821;50.936;6.854;2022-09-21T00:52:06;10.50;99.90
3614;DHT22;1821;50.936;6.854;2022-09-21T00:52:52;11.00;99.90
3614;DHT22;1821;50.936;6.854;2022-09-21T00:53:37;11.20;99.90
3614;DHT22;1821;50.936;6.854;2022-09-21T00:54:24;11.50;99.90
3614;DHT22;1821;50.936;6.854;2022-09-21T00:55:29;10.50;99.90
3614;DHT22;1821;50.936;6.854;2022-09-21T00:56:12;10.50;99.90
3614;DHT22;1821;50.936;6.854;2022-09-21T00:56:55;11.20;99.90
3614;DHT22;1821;50.936;6.854;2022-09-21T00:57:40;10.40;99.90
3614;DHT22;1821;50.936;6.854;2022-09-21T00:58:30;10.00;99.90
3614;DHT22;1821;50.936;6.854;2022-09-21T00:59:15;10.50;99.90
3614;DHT22;1821;50.936;6.854;2022-09-21T01:00:07;10.10;99.90
3614;DHT22;1821;50.936;6.854;2022-09-21T01:00:49;10.40;99.90
3614;DHT22;1821;50.936;6.854;2022-09-21T01:01:30;10.60;99.90
3614;DHT22;1821;50.936;6.854;2022-09-21T01:02:12;11.60;99.90
3614;DHT22;1821;50.936;6.854;2022-09-21T01:02:56;10.40;99.90
3614;DHT22;1821;50.936;6.854;2022-09-21T01:03:41;10.80;99.90
3614;DHT22;1821;50.936;6.854;2022-09-21T01:04:27;10.00;99.90
3614;DHT22;1821;50.936;6.854;2022-09-21T01:05:10;10.30;99.90
3614;DHT22;1821;50.936;6.854;2022-09-21T01:05:52;11.00;99.90
3614;DHT22;1821;50.936;6.854;2022-09-21T01:06:36;10.40;99.90
3614;DHT22;1821;50.936;6.854;2022-09-21T01:07:24;10.40;99.90
3614;DHT22;1821;50.936;6.854;2022-09-21T01:08:09;10.80;99.90
3614;DHT22;1821;50.936;6.854;2022-09-21T01:08:55;10.00;99.90
3614;DHT22;1821;50.936;6.854;2022-09-21T01:09:41;10.30;99.90
3614;DHT22;1821;50.936;6.854;2022-09-21T01:10:24;10.10;99.90
3614;DHT22;1821;50.936;6.854;2022-09-21T01:11:24;10.30;99.90
3614;DHT22;1821;50.936;6.854;2022-09-21T01:12:45;10.30;99.90
3614;DHT22;1821;50.936;6.854;2022-09-21T01:16:18;10.40;99.90
3614;DHT22;1821;50.936;6.854;2022-09-21T01:19:10;10.20;99.90
3614;DHT22;1821;50.936;6.854;2022-09-21T01:25:06;10.20;99.90
3614;DHT22;1821;50.936;6.854;2022-09-21T01:29:19;10.30;99.90
3614;DHT22;1821;50.936;6.854;2022-09-21T01:30:11;10.20;99.90
3614;DHT22;1821;50.936;6.854;2022-09-21T01:30:57;10.50;99.90
3614;DHT22;1821;50.936;6.854;2022-09-21T01:32:43;10.20;99.90
3614;DHT22;1821;50.936;6.854;2022-09-21T01:33:31;10.10;99.90
3614;DHT22;1821;50.936;6.854;2022-09-21T01:35:06;10.40;99.90
3614;DHT22;1821;50.936;6.854;2022-09-21T01:35:28;10.80;99.90
3614;DHT22;1821;50.936;6.854;2022-09-21T01:36:15;10.20;99.90
3614;DHT22;1821;50.936;6.854;2022-09-21T01:37:05;10.20;99.90
3614;DHT22;1821;50.936;6.854;2022-09-21T01:38:01;10.20;99.90
3614;DHT22;1821;50.936;6.854;2022-09-21T01:38:47;10.70;99.90
3614;DHT22;1821;50.936;6.854;2022-09-21T01:39:33;10.60;99.90
3614;DHT22;1821;50.936;6.854;2022-09-21T01:40:26;10.10;99.90
3614;DHT22;1821;50.936;6.854;2022-09-21T01:41:18;10.10;99.90
3614;DHT22;1821;50.936;6.854;2022-09-21T01:42:02;11.10;99.90
3614;DHT22;1821;50.936;6.854;2022-09-21T01:42:47;10.10;99.90
3614;DHT22;1821;50.936;6.854;2022-09-21T01:43:34;10.00;99.90
3614;DHT22;1821;50.936;6.854;2022-09-21T01:44:21;9.90;99.90
3614;DHT22;1821;50.936;6.854;2022-09-21T01:45:05;9.90;99.90
3614;DHT22;1821;50.936;6.854;2022-09-21T01:45:50;9.90;99.90
3614;DHT22;1821;50.936;6.854;2022-09-21T01:46:34;10.60;99.90
3614;DHT22;1821;50.936;6.854;2022-09-21T01:47:17;10.50;99.90
3614;DHT22;1821;50.936;6.854;2022-09-21T01:48:00;10.00;99.90
3614;DHT22;1821;50.936;6.854;2022-09-21T01:48:47;10.00;99.90
3614;DHT22;1821;50.936;6.854;2022-09-21T01:49:38;10.10;99.90
3614;DHT22;1821;50.936;6.854;2022-09-21T01:50:20;10.10;99.90
3614;DHT22;1821;50.936;6.854;2022-09-21T01:51:07;10.20;99.90
3614;DHT22;1821;50.936;6.854;2022-09-21T01:52:07;10.10;99.90
3614;DHT22;1821;50.936;6.854;2022-09-21T01:52:57;10.10;99.90
3614;DHT22;1821;50.936;6.854;2022-09-21T01:53:45;10.20;99.90
3614;DHT22;1821;50.936;6.854;2022-09-21T01:54:32;9.70;99.90
3614;DHT22;1821;50.936;6.854;2022-09-21T01:55:25;10.20;99.90
3614;DHT22;1821;50.936;6.854;2022-09-21T01:57:16;10.10;99.90
3614;DHT22;1821;50.936;6.854;2022-09-21T01:59:14;10.10;99.90
3614;DHT22;1821;50.936;6.854;2022-09-21T01:59:58;10.00;99.90
3614;DHT22;1821;50.936;6.854;2022-09-21T02:00:41;9.90;99.90
3614;DHT22;1821;50.936;6.854;2022-09-21T02:01:26;9.90;99.90
3614;DHT22;1821;50.936;6.854;2022-09-21T02:02:16;9.70;99.90
3614;DHT22;1821;50.936;6.854;2022-09-21T02:03:00;9.60;99.90
3614;DHT22;1821;50.936;6.854;2022-09-21T02:03:54;10.10;99.90
3614;DHT22;1821;50.936;6.854;2022-09-21T02:04:38;10.60;99.90
3614;DHT22;1821;50.936;6.854;2022-09-21T02:05:22;10.50;99.90
3614;DHT22;1821;50.936;6.854;2022-09-21T02:06:05;9.40;99.90
3614;DHT22;1821;50.936;6.854;2022-09-21T02:06:49;9.80;99.90
3614;DHT22;1821;50.936;6.854;2022-09-21T02:07:33;9.60;99.90
3614;DHT22;1821;50.936;6.854;2022-09-21T02:08:15;9.80;99.90
3614;DHT22;1821;50.936;6.854;2022-09-21T02:08:57;9.70;99.90
3614;DHT22;1821;50.936;6.854;2022-09-21T02:09:39;9.70;99.90
3614;DHT22;1821;50.936;6.854;2022-09-21T02:10:42;9.60;99.90
3614;DHT22;1821;50.936;6.854;2022-09-21T02:11:25;9.70;99.90
3614;DHT22;1821;50.936;6.854;2022-09-21T02:12:07;9.70;99.90
3614;DHT22;1821;50.936;6.854;2022-09-21T02:12:53;9.60;99.90
3614;DHT22;1821;50.936;6.854;2022-09-21T02:13:42;10.30;99.90
3614;DHT22;1821;50.936;6.854;2022-09-21T02:14:26;9.80;99.90
3614;DHT22;1821;50.936;6.854;2022-09-21T02:15:08;9.80;99.90
3614;DHT22;1821;50.936;6.854;2022-09-21T02:16:06;9.80;99.90
3614;DHT22;1821;50.936;6.854;2022-09-21T02:16:54;9.80;99.90
3614;DHT22;1821;50.936;6.854;2022-09-21T02:18:00;9.70;99.90
3614;DHT22;1821;50.936;6.854;2022-09-21T02:19:45;9.50;99.90
3614;DHT22;1821;50.936;6.854;2022-09-21T02:20:39;9.80;99.90
3614;DHT22;1821;50.936;6.854;2022-09-21T02:21:36;10.40;99.90
3614;DHT22;1821;50.936;6.854;2022-09-21T02:22:49;9.70;99.90
3614;DHT22;1821;50.936;6.854;2022-09-21T02:23:42;9.80;99.90
3614;DHT22;1821;50.936;6.854;2022-09-21T02:24:39;9.80;99.90
3614;DHT22;1821;50.936;6.854;2022-09-21T02:25:33;9.20;99.90
3614;DHT22;1821;50.936;6.854;2022-09-21T02:26:33;9.80;99.90
3614;DHT22;1821;50.936;6.854;2022-09-21T02:29:13;9.70;99.90
3614;DHT22;1821;50.936;6.854;2022-09-21T02:30:54;9.70;99.90
3614;DHT22;1821;50.936;6.854;2022-09-21T02:31:46;10.50;99.90
3614;DHT22;1821;50.936;6.854;2022-09-21T02:34:01;9.60;99.90
3614;DHT22;1821;50.936;6.854;2022-09-21T02:34:52;9.70;99.90
3614;DHT22;1821;50.936;6.854;2022-09-21T02:36:49;9.60;99.90
3614;DHT22;1821;50.936;6.854;2022-09-21T02:37:39;9.60;99.90
3614;DHT22;1821;50.936;6.854;2022-09-21T02:38:43;9.70;99.90
3614;DHT22;1821;50.936;6.854;2022-09-21T02:39:45;10.10;99.90
3614;DHT22;1821;50.936;6.854;2022-09-21T02:42:09;9.60;99.90
3614;DHT22;1821;50.936;6.854;2022-09-21T02:42:57;9.60;99.90
3614;DHT22;1821;50.936;6.854;2022-09-21T02:43:46;9.70;99.90
3614;DHT22;1821;50.936;6.854;2022-09-21T02:44:34;9.70;99.90
3614;DHT22;1821;50.936;6.854;2022-09-21T02:45:25;9.70;99.90
3614;DHT22;1821;50.936;6.854;2022-09-21T02:46:24;9.80;99.90
3614;DHT22;1821;50.936;6.854;2022-09-21T02:47:13;9.70;99.90
3614;DHT22;1821;50.936;6.854;2022-09-21T02:48:34;9.70;99.90
3614;DHT22;1821;50.936;6.854;2022-09-21T02:49:19;10.70;99.90
3614;DHT22;1821;50.936;6.854;2022-09-21T02:50:06;9.70;99.90
3614;DHT22;1821;50.936;6.854;2022-09-21T02:50:53;9.60;99.90
3614;DHT22;1821;50.936;6.854;2022-09-21T02:51:42;9.10;99.90
3614;DHT22;1821;50.936;6.854;2022-09-21T02:52:29;9.60;99.90
3614;DHT22;1821;50.936;6.854;2022-09-21T02:53:16;9.50;99.90
3614;DHT22;1821;50.936;6.854;2022-09-21T02:54:02;9.50;99.90
3614;DHT22;1821;50.936;6.854;2022-09-21T02:54:47;9.50;99.90
3614;DHT22;1821;50.936;6.854;2022-09-21T02:55:31;9.50;99.90
3614;DHT22;1821;50.936;6.854;2022-09-21T02:56:15;9.40;99.90
3614;DHT22;1821;50.936;6.854;2022-09-21T02:56:58;9.60;99.90
3614;DHT22;1821;50.936;6.854;2022-09-21T02:57:41;10.00;99.90
3614;DHT22;1821;50.936;6.854;2022-09-21T02:58:25;9.50;99.90
3614;DHT22;1821;50.936;6.854;2022-09-21T02:59:08;10.20;99.90
3614;DHT22;1821;50.936;6.854;2022-09-21T02:59:50;10.50;99.90
3614;DHT22;1821;50.936;6.854;2022-09-21T03:00:34;9.60;99.90
3614;DHT22;1821;50.936;6.854;2022-09-21T03:01:16;9.60;99.90
3614;DHT22;1821;50.936;6.854;2022-09-21T03:01:59;10.90;99.90
3614;DHT22;1821;50.936;6.854;2022-09-21T03:02:43;10.20;99.90
3614;DHT22;1821;50.936;6.854;2022-09-21T03:03:25;9.30;99.90
3614;DHT22;1821;50.936;6.854;2022-09-21T03:04:06;9.50;99.90
3614;DHT22;1821;50.936;6.854;2022-09-21T03:04:48;10.10;99.90
3614;DHT22;1821;50.936;6.854;2022-09-21T03:05:30;10.20;99.90
3614;DHT22;1821;50.936;6.854;2022-09-21T03:06:12;9.60;99.90
3614;DHT22;1821;50.936;6.854;2022-09-21T03:06:54;9.50;99.90
3614;DHT22;1821;50.936;6.854;2022-09-21T03:07:37;9.60;99.90
3614;DHT22;1821;50.936;6.854;2022-09-21T03:08:20;10.10;99.90
3614;DHT22;1821;50.936;6.854;2022-09-21T03:09:02;9.40;99.90
3614;DHT22;1821;50.936;6.854;2022-09-21T03:09:43;9.50;99.90
3614;DHT22;1821;50.936;6.854;2022-09-21T03:10:25;9.50;99.90
3614;DHT22;1821;50.936;6.854;2022-09-21T03:11:07;9.50;99.90
3614;DHT22;1821;50.936;6.854;2022-09-21T03:11:49;9.20;99.90
3614;DHT22;1821;50.936;6.854;2022-09-21T03:12:32;9.50;99.90
3614;DHT22;1821;50.936;6.854;2022-09-21T03:13:13;10.00;99.90
3614;DHT22;1821;50.936;6.854;2022-09-21T03:13:55;9.50;99.90
3614;DHT22;1821;50.936;6.854;2022-09-21T03:14:37;9.40;99.90
3614;DHT22;1821;50.936;6.854;2022-09-21T03:15:19;9.60;99.90
3614;DHT22;1821;50.936;6.854;2022-09-21T03:16:03;9.50;99.90
3614;DHT22;1821;50.936;6.854;2022-09-21T03:16:45;9.10;99.90
3614;DHT22;1821;50.936;6.854;2022-09-21T03:17:27;10.20;99.90
3614;DHT22;1821;50.936;6.854;2022-09-21T03:18:09;9.10;99.90
3614;DHT22;1821;50.936;6.854;2022-09-21T03:18:51;9.40;99.90
3614;DHT22;1821;50.936;6.854;2022-09-21T03:19:33;10.10;99.90
3614;DHT22;1821;50.936;6.854;2022-09-21T03:20:14;9.50;99.90
3614;DHT22;1821;50.936;6.854;2022-09-21T03:20:57;9.20;99.90
3614;DHT22;1821;50.936;6.854;2022-09-21T03:21:38;9.50;99.90
3614;DHT22;1821;50.936;6.854;2022-09-21T03:22:25;9.90;99.90
3614;DHT22;1821;50.936;6.854;2022-09-21T03:23:06;9.50;99.90
3614;DHT22;1821;50.936;6.854;2022-09-21T03:23:48;9.40;99.90
3614;DHT22;1821;50.936;6.854;2022-09-21T03:24:30;9.40;99.90
3614;DHT22;1821;50.936;6.854;2022-09-21T03:25:28;8.80;99.90
3614;DHT22;1821;50.936;6.854;2022-09-21T03:26:09;9.70;99.90
3614;DHT22;1821;50.936;6.854;2022-09-21T03:26:51;9.40;99.90
3614;DHT22;1821;50.936;6.854;2022-09-21T03:27:33;8.90;99.90
3614;DHT22;1821;50.936;6.854;2022-09-21T03:28:15;9.30;99.90
3614;DHT22;1821;50.936;6.854;2022-09-21T03:28:57;9.20;99.90
3614;DHT22;1821;50.936;6.854;2022-09-21T03:29:39;9.40;99.90
3614;DHT22;1821;50.936;6.854;2022-09-21T03:30:22;10.60;99.90
3614;DHT22;1821;50.936;6.854;2022-09-21T03:31:04;9.50;99.90
3614;DHT22;1821;50.936;6.854;2022-09-21T03:31:47;9.50;99.90
3614;DHT22;1821;50.936;6.854;2022-09-21T03:32:28;9.40;99.90
3614;DHT22;1821;50.936;6.854;2022-09-21T03:33:10;9.40;99.90
3614;DHT22;1821;50.936;6.854;2022-09-21T03:33:53;9.90;99.90
3614;DHT22;1821;50.936;6.854;2022-09-21T03:34:35;9.30;99.90
3614;DHT22;1821;50.936;6.854;2022-09-21T03:35:21;9.40;99.90
3614;DHT22;1821;50.936;6.854;2022-09-21T03:36:03;9.30;99.90
3614;DHT22;1821;50.936;6.854;2022-09-21T03:36:45;9.30;99.90
3614;DHT22;1821;50.936;6.854;2022-09-21T03:37:27;9.00;99.90
3614;DHT22;1821;50.936;6.854;2022-09-21T03:38:11;9.40;99.90
3614;DHT22;1821;50.936;6.854;2022-09-21T03:38:53;9.30;99.90
3614;DHT22;1821;50.936;6.854;2022-09-21T03:39:34;9.40;99.90
3614;DHT22;1821;50.936;6.854;2022-09-21T03:40:17;9.40;99.90
3614;DHT22;1821;50.936;6.854;2022-09-21T03:40:59;9.40;99.90
3614;DHT22;1821;50.936;6.854;2022-09-21T03:41:41;9.00;99.90
3614;DHT22;1821;50.936;6.854;2022-09-21T03:42:23;9.20;99.90
3614;DHT22;1821;50.936;6.854;2022-09-21T03:43:04;9.40;99.90
3614;DHT22;1821;50.936;6.854;2022-09-21T03:43:46;9.80;99.90
3614;DHT22;1821;50.936;6.854;2022-09-21T03:44:28;9.40;99.90
3614;DHT22;1821;50.936;6.854;2022-09-21T03:45:11;9.40;99.90
3614;DHT22;1821;50.936;6.854;2022-09-21T03:45:53;10.20;99.90
3614;DHT22;1821;50.936;6.854;2022-09-21T03:46:34;9.90;99.90
3614;DHT22;1821;50.936;6.854;2022-09-21T03:47:16;9.50;99.90
3614;DHT22;1821;50.936;6.854;2022-09-21T03:47:59;9.40;99.90
3614;DHT22;1821;50.936;6.854;2022-09-21T03:48:41;9.40;99.90
3614;DHT22;1821;50.936;6.854;2022-09-21T03:49:27;9.40;99.90
3614;DHT22;1821;50.936;6.854;2022-09-21T03:50:10;9.40;99.90
3614;DHT22;1821;50.936;6.854;2022-09-21T03:50:52;8.80;99.90
3614;DHT22;1821;50.936;6.854;2022-09-21T03:51:34;9.90;99.90
3614;DHT22;1821;50.936;6.854;2022-09-21T03:52:15;9.30;99.90
3614;DHT22;1821;50.936;6.854;2022-09-21T03:52:57;9.50;99.90
3614;DHT22;1821;50.936;6.854;2022-09-21T03:53:39;9.60;99.90
3614;DHT22;1821;50.936;6.854;2022-09-21T03:54:21;8.90;99.90
3614;DHT22;1821;50.936;6.854;2022-09-21T03:55:04;9.00;99.90
3614;DHT22;1821;50.936;6.854;2022-09-21T03:55:47;9.10;99.90
3614;DHT22;1821;50.936;6.854;2022-09-21T03:56:28;9.10;99.90
3614;DHT22;1821;50.936;6.854;2022-09-21T03:57:10;9.10;99.90
3614;DHT22;1821;50.936;6.854;2022-09-21T03:57:52;9.10;99.90
3614;DHT22;1821;50.936;6.854;2022-09-21T03:58:33;9.10;99.90
3614;DHT22;1821;50.936;6.854;2022-09-21T03:59:15;9.30;99.90
3614;DHT22;1821;50.936;6.854;2022-09-21T03:59:57;9.30;99.90
3614;DHT22;1821;50.936;6.854;2022-09-21T04:00:39;9.00;99.90
3614;DHT22;1821;50.936;6.854;2022-09-21T04:01:21;9.30;99.90
3614;DHT22;1821;50.936;6.854;2022-09-21T04:02:03;9.60;99.90
3614;DHT22;1821;50.936;6.854;2022-09-21T04:02:44;9.10;99.90
3614;DHT22;1821;50.936;6.854;2022-09-21T04:03:26;9.10;99.90
3614;DHT22;1821;50.936;6.854;2022-09-21T04:04:08;9.90;99.90
3614;DHT22;1821;50.936;6.854;2022-09-21T04:04:50;9.10;99.90
3614;DHT22;1821;50.936;6.854;2022-09-21T04:05:32;9.70;99.90
3614;DHT22;1821;50.936;6.854;2022-09-21T04:06:14;9.10;99.90
3614;DHT22;1821;50.936;6.854;2022-09-21T04:06:56;9.10;99.90
3614;DHT22;1821;50.936;6.854;2022-09-21T04:07:38;9.80;99.90
3614;DHT22;1821;50.936;6.854;2022-09-21T04:08:21;9.00;99.90
3614;DHT22;1821;50.936;6.854;2022-09-21T04:09:02;9.40;99.90
3614;DHT22;1821;50.936;6.854;2022-09-21T04:09:44;9.90;99.90
3614;DHT22;1821;50.936;6.854;2022-09-21T04:10:26;9.00;99.90
3614;DHT22;1821;50.936;6.854;2022-09-21T04:11:11;9.20;99.90
3614;DHT22;1821;50.936;6.854;2022-09-21T04:11:53;9.30;99.90
3614;DHT22;1821;50.936;6.854;2022-09-21T04:12:34;9.50;99.90
3614;DHT22;1821;50.936;6.854;2022-09-21T04:13:16;9.30;99.90
3614;DHT22;1821;50.936;6.854;2022-09-21T04:13:58;9.00;99.90
3614;DHT22;1821;50.936;6.854;2022-09-21T04:14:40;9.00;99.90
3614;DHT22;1821;50.936;6.854;2022-09-21T04:15:22;10.00;99.90
3614;DHT22;1821;50.936;6.854;2022-09-21T04:16:04;9.00;99.90
3614;DHT22;1821;50.936;6.854;2022-09-21T04:16:46;9.00;99.90
3614;DHT22;1821;50.936;6.854;2022-09-21T04:17:28;9.00;99.90
3614;DHT22;1821;50.936;6.854;2022-09-21T04:18:10;9.00;99.90
3614;DHT22;1821;50.936;6.854;2022-09-21T04:18:52;8.90;99.90
3614;DHT22;1821;50.936;6.854;2022-09-21T04:19:34;9.90;99.90
3614;DHT22;1821;50.936;6.854;2022-09-21T04:20:16;8.80;99.90
3614;DHT22;1821;50.936;6.854;2022-09-21T04:20:57;8.80;99.90
3614;DHT22;1821;50.936;6.854;2022-09-21T04:21:39;8.90;99.90
3614;DHT22;1821;50.936;6.854;2022-09-21T04:22:21;8.70;99.90
3614;DHT22;1821;50.936;6.854;2022-09-21T04:23:05;8.60;99.90
3614;DHT22;1821;50.936;6.854;2022-09-21T04:23:49;8.90;99.90
3614;DHT22;1821;50.936;6.854;2022-09-21T04:24:30;8.90;99.90
3614;DHT22;1821;50.936;6.854;2022-09-21T04:25:13;9.00;99.90
3614;DHT22;1821;50.936;6.854;2022-09-21T04:25:55;9.80;99.90
3614;DHT22;1821;50.936;6.854;2022-09-21T04:26:37;8.90;99.90
3614;DHT22;1821;50.936;6.854;2022-09-21T04:27:21;9.00;99.90
3614;DHT22;1821;50.936;6.854;2022-09-21T04:28:03;9.20;99.90
3614;DHT22;1821;50.936;6.854;2022-09-21T04:28:44;8.90;99.90
3614;DHT22;1821;50.936;6.854;2022-09-21T04:29:26;9.40;99.90
3614;DHT22;1821;50.936;6.854;2022-09-21T04:30:10;9.00;99.90
3614;DHT22;1821;50.936;6.854;2022-09-21T04:30:53;9.10;99.90
3614;DHT22;1821;50.936;6.854;2022-09-21T04:31:36;9.10;99.90
3614;DHT22;1821;50.936;6.854;2022-09-21T04:32:18;9.10;99.90
3614;DHT22;1821;50.936;6.854;2022-09-21T04:32:59;9.10;99.90
3614;DHT22;1821;50.936;6.854;2022-09-21T04:33:41;9.00;99.90
3614;DHT22;1821;50.936;6.854;2022-09-21T04:34:23;9.60;99.90
3614;DHT22;1821;50.936;6.854;2022-09-21T04:35:05;8.80;99.90
3614;DHT22;1821;50.936;6.854;2022-09-21T04:35:47;9.00;99.90
3614;DHT22;1821;50.936;6.854;2022-09-21T04:36:29;9.10;99.90
3614;DHT22;1821;50.936;6.854;2022-09-21T04:37:17;9.10;99.90
3614;DHT22;1821;50.936;6.854;2022-09-21T04:37:59;9.40;99.90
3614;DHT22;1821;50.936;6.854;2022-09-21T04:38:41;8.80;99.90
3614;DHT22;1821;50.936;6.854;2022-09-21T04:39:23;9.00;99.90
3614;DHT22;1821;50.936;6.854;2022-09-21T04:40:06;9.10;99.90
3614;DHT22;1821;50.936;6.854;2022-09-21T04:40:55;9.10;99.90
3614;DHT22;1821;50.936;6.854;2022-09-21T04:41:37;9.10;99.90
3614;DHT22;1821;50.936;6.854;2022-09-21T04:42:19;9.40;99.90
3614;DHT22;1821;50.936;6.854;2022-09-21T04:43:00;9.20;99.90
3614;DHT22;1821;50.936;6.854;2022-09-21T04:43:43;9.70;99.90
3614;DHT22;1821;50.936;6.854;2022-09-21T04:44:26;8.80;99.90
3614;DHT22;1821;50.936;6.854;2022-09-21T04:45:08;9.30;99.90
3614;DHT22;1821;50.936;6.854;2022-09-21T04:45:50;9.00;99.90
3614;DHT22;1821;50.936;6.854;2022-09-21T04:46:32;9.00;99.90
3614;DHT22;1821;50.936;6.854;2022-09-21T04:47:14;8.90;99.90
3614;DHT22;1821;50.936;6.854;2022-09-21T04:47:56;9.50;99.90
3614;DHT22;1821;50.936;6.854;2022-09-21T04:48:38;9.60;99.90
3614;DHT22;1821;50.936;6.854;2022-09-21T04:49:20;10.00;99.90
3614;DHT22;1821;50.936;6.854;2022-09-21T04:50:02;8.80;99.90
3614;DHT22;1821;50.936;6.854;2022-09-21T04:50:47;8.90;99.90
3614;DHT22;1821;50.936;6.854;2022-09-21T04:51:29;8.90;99.90
3614;DHT22;1821;50.936;6.854;2022-09-21T04:52:12;9.10;99.90
3614;DHT22;1821;50.936;6.854;2022-09-21T04:52:59;9.00;99.90
3614;DHT22;1821;50.936;6.854;2022-09-21T04:53:42;8.90;99.90
3614;DHT22;1821;50.936;6.854;2022-09-21T04:54:25;9.10;99.90
3614;DHT22;1821;50.936;6.854;2022-09-21T04:55:07;9.90;99.90
3614;DHT22;1821;50.936;6.854;2022-09-21T04:55:48;8.90;99.90
3614;DHT22;1821;50.936;6.854;2022-09-21T04:56:30;8.90;99.90
3614;DHT22;1821;50.936;6.854;2022-09-21T04:57:13;8.70;99.90
3614;DHT22;1821;50.936;6.854;2022-09-21T04:57:54;8.90;99.90
3614;DHT22;1821;50.936;6.854;2022-09-21T04:58:36;8.80;99.90
3614;DHT22;1821;50.936;6.854;2022-09-21T04:59:18;8.60;99.90
3614;DHT22;1821;50.936;6.854;2022-09-21T05:00:00;8.80;99.90
3614;DHT22;1821;50.936;6.854;2022-09-21T05:00:42;8.70;99.90
3614;DHT22;1821;50.936;6.854;2022-09-21T05:01:24;8.80;99.90
3614;DHT22;1821;50.936;6.854;2022-09-21T05:02:06;8.50;99.90
3614;DHT22;1821;50.936;6.854;2022-09-21T05:02:47;9.80;99.90
3614;DHT22;1821;50.936;6.854;2022-09-21T05:03:29;8.80;99.90
3614;DHT22;1821;50.936;6.854;2022-09-21T05:04:11;8.70;99.90
3614;DHT22;1821;50.936;6.854;2022-09-21T05:04:53;8.80;99.90
3614;DHT22;1821;50.936;6.854;2022-09-21T05:05:35;9.10;99.90
3614;DHT22;1821;50.936;6.854;2022-09-21T05:06:16;9.10;99.90
3614;DHT22;1821;50.936;6.854;2022-09-21T05:06:58;8.90;99.90
3614;DHT22;1821;50.936;6.854;2022-09-21T05:07:40;8.90;99.90
3614;DHT22;1821;50.936;6.854;2022-09-21T05:08:23;8.90;99.90
3614;DHT22;1821;50.936;6.854;2022-09-21T05:09:24;8.80;99.90
3614;DHT22;1821;50.936;6.854;2022-09-21T05:10:24;8.90;99.90
3614;DHT22;1821;50.936;6.854;2022-09-21T05:11:07;8.90;99.90
3614;DHT22;1821;50.936;6.854;2022-09-21T05:11:49;9.40;99.90
3614;DHT22;1821;50.936;6.854;2022-09-21T05:12:33;9.00;99.90
3614;DHT22;1821;50.936;6.854;2022-09-21T05:13:20;9.50;99.90
3614;DHT22;1821;50.936;6.854;2022-09-21T05:14:01;8.90;99.90
3614;DHT22;1821;50.936;6.854;2022-09-21T05:14:43;8.80;99.90
3614;DHT22;1821;50.936;6.854;2022-09-21T05:15:25;8.90;99.90
3614;DHT22;1821;50.936;6.854;2022-09-21T05:16:07;9.00;99.90
3614;DHT22;1821;50.936;6.854;2022-09-21T05:16:49;8.90;99.90
3614;DHT22;1821;50.936;6.854;2022-09-21T05:17:31;8.80;99.90
3614;DHT22;1821;50.936;6.854;2022-09-21T05:18:13;9.80;99.90
3614;DHT22;1821;50.936;6.854;2022-09-21T05:18:54;8.90;99.90